createdAt,value
2017-11-24T00:02:17.737Z,28.00
2017-11-24T00:04:45.947Z,28.10
2017-11-24T00:07:13.369Z,28.00
2017-11-24T00:09:40.824Z,27.90
2017-11-24T00:12:08.234Z,27.70
2017-11-24T00:14:35.861Z,27.70
2017-11-24T00:17:03.281Z,27.70
2017-11-24T00:19:30.717Z,27.50
2017-11-24T00:21:58.157Z,27.70
2017-11-24T00:24:25.599Z,27.90
2017-11-24T00:26:53.017Z,27.90
2017-11-24T00:29:21.220Z,28.10
2017-11-24T00:31:48.649Z,28.10
2017-11-24T00:34:16.845Z,28.50
2017-11-24T00:36:44.273Z,28.40
2017-11-24T00:39:11.696Z,28.40
2017-11-24T00:41:39.141Z,28.50
2017-11-24T00:44:06.565Z,28.50
2017-11-24T00:46:34.005Z,28.40
2017-11-24T00:49:02.193Z,28.40
2017-11-24T00:51:29.670Z,28.30
2017-11-24T00:53:57.089Z,28.30
2017-11-24T00:56:24.531Z,28.40
2017-11-24T00:58:51.957Z,28.30
2017-11-24T01:01:19.393Z,28.50
2017-11-24T01:03:46.829Z,28.60
2017-11-24T01:06:14.253Z,28.90
2017-11-24T01:08:41.683Z,28.90
2017-11-24T01:11:09.101Z,29.20
2017-11-24T01:13:36.553Z,29.10
2017-11-24T01:16:03.977Z,29.20
2017-11-24T01:18:32.177Z,29.20
2017-11-24T01:20:59.601Z,29.20
2017-11-24T01:23:27.045Z,29.30
2017-11-24T01:25:54.470Z,29.60
2017-11-24T01:28:21.906Z,29.80
2017-11-24T01:30:49.334Z,29.80
2017-11-24T01:33:17.531Z,30.30
2017-11-24T01:35:44.962Z,30.30
2017-11-24T01:38:13.174Z,30.60
2017-11-24T01:40:40.601Z,30.50
2017-11-24T01:43:08.038Z,30.70
2017-11-24T01:45:35.462Z,30.80
2017-11-24T01:48:02.886Z,30.90
2017-11-24T01:50:30.318Z,31.00
2017-11-24T01:52:58.521Z,31.20
2017-11-24T01:55:25.965Z,31.10
2017-11-24T01:57:53.401Z,31.20
2017-11-24T02:00:21.598Z,31.30
2017-11-24T02:02:49.182Z,31.20
2017-11-24T02:05:16.596Z,31.30
2017-11-24T02:07:44.793Z,31.10
2017-11-24T02:10:12.221Z,31.00
2017-11-24T02:12:40.404Z,31.00
2017-11-24T02:15:07.845Z,31.00
2017-11-24T02:17:35.269Z,30.90
2017-11-24T02:20:02.702Z,30.80
2017-11-24T02:22:30.130Z,30.70
2017-11-24T02:24:57.565Z,30.70
2017-11-24T02:27:25.757Z,30.50
2017-11-24T02:29:53.201Z,30.50
2017-11-24T02:32:21.408Z,30.40
2017-11-24T02:34:48.832Z,30.30
2017-11-24T02:37:17.034Z,30.40
2017-11-24T02:39:44.476Z,30.30
2017-11-24T02:42:11.901Z,30.50
2017-11-24T02:44:39.353Z,30.40
2017-11-24T02:47:06.794Z,30.10
2017-11-24T02:49:34.225Z,30.20
2017-11-24T02:52:01.661Z,30.20
2017-11-24T02:54:29.081Z,30.10
2017-11-24T02:56:56.521Z,30.10
2017-11-24T02:59:23.952Z,30.00
2017-11-24T03:01:51.385Z,30.10
2017-11-24T03:04:18.813Z,30.00
2017-11-24T03:06:47.018Z,30.30
2017-11-24T03:09:14.441Z,30.30
2017-11-24T03:11:42.640Z,30.60
2017-11-24T03:14:10.074Z,30.50
2017-11-24T03:16:37.502Z,30.60
2017-11-24T03:19:04.942Z,31.00
2017-11-24T03:21:32.362Z,31.00
2017-11-24T03:23:59.797Z,31.20
2017-11-24T03:26:27.990Z,31.40
2017-11-24T03:28:55.441Z,31.30
2017-11-24T03:31:22.863Z,31.50
2017-11-24T03:33:50.309Z,31.70
2017-11-24T03:36:17.739Z,31.90
2017-11-24T03:38:45.168Z,32.20
2017-11-24T03:41:12.601Z,32.30
2017-11-24T03:43:40.033Z,32.40
2017-11-24T03:46:07.466Z,32.40
2017-11-24T03:48:34.906Z,32.30
2017-11-24T03:51:02.330Z,32.20
2017-11-24T03:53:30.525Z,32.10
2017-11-24T03:55:57.962Z,32.10
2017-11-24T03:58:26.152Z,32.00
2017-11-24T04:00:53.584Z,31.90
2017-11-24T04:03:21.293Z,31.70
2017-11-24T04:05:48.704Z,31.60
2017-11-24T04:08:16.901Z,31.30
2017-11-24T04:10:44.342Z,31.30
2017-11-24T04:13:12.533Z,31.20
2017-11-24T04:15:39.965Z,31.20
2017-11-24T04:18:08.161Z,31.00
2017-11-24T04:20:35.590Z,31.00
2017-11-24T04:23:03.786Z,31.10
2017-11-24T04:25:31.237Z,31.00
2017-11-24T04:27:59.424Z,31.10
2017-11-24T04:30:27.041Z,31.10
2017-11-24T04:32:54.479Z,31.20
2017-11-24T04:35:22.266Z,31.10
2017-11-24T04:37:49.701Z,31.00
2017-11-24T04:40:17.132Z,30.90
2017-11-24T04:42:45.325Z,31.00
2017-11-24T04:45:12.759Z,30.80
2017-11-24T04:47:40.197Z,30.90
2017-11-24T04:50:07.622Z,30.70
2017-11-24T04:52:35.060Z,30.50
2017-11-24T04:55:02.510Z,30.30
2017-11-24T04:57:29.940Z,30.00
2017-11-24T04:59:57.361Z,30.00
2017-11-24T05:02:25.563Z,29.70
2017-11-24T05:04:52.986Z,29.60
2017-11-24T05:07:21.218Z,29.40
2017-11-24T05:09:48.657Z,29.40
2017-11-24T05:12:16.077Z,29.20
2017-11-24T05:14:43.518Z,29.20
2017-11-24T05:17:11.705Z,29.00
2017-11-24T05:19:39.241Z,29.00
2017-11-24T05:22:06.669Z,28.80
2017-11-24T05:24:34.105Z,28.70
2017-11-24T05:27:01.529Z,28.50
2017-11-24T05:29:29.733Z,28.30
2017-11-24T05:31:57.154Z,28.40
2017-11-24T05:34:24.621Z,28.30
2017-11-24T05:36:52.043Z,28.30
2017-11-24T05:39:19.480Z,28.30
2017-11-24T05:41:46.919Z,28.20
2017-11-24T05:44:14.352Z,28.40
2017-11-24T05:46:41.781Z,28.30
2017-11-24T05:49:09.226Z,28.10
2017-11-24T05:51:36.670Z,28.30
2017-11-24T05:54:04.099Z,27.80
2017-11-24T05:56:31.534Z,28.20
2017-11-24T05:58:58.955Z,28.00
2017-11-24T06:01:26.389Z,28.00
2017-11-24T06:03:53.828Z,28.00
2017-11-24T06:06:21.273Z,28.70
2017-11-24T06:08:48.706Z,28.10
2017-11-24T06:11:16.453Z,28.20
2017-11-24T06:13:43.878Z,28.50
2017-11-24T06:16:11.315Z,29.00
2017-11-24T06:18:38.742Z,29.80
2017-11-24T06:21:07.185Z,29.30
2017-11-24T06:23:34.624Z,29.80
2017-11-24T06:26:02.046Z,29.80
2017-11-24T06:28:29.467Z,29.90
2017-11-24T06:30:57.692Z,31.10
2017-11-24T06:33:25.113Z,30.90
2017-11-24T06:35:52.541Z,30.70
2017-11-24T06:38:19.976Z,31.00
2017-11-24T06:40:47.409Z,31.00
2017-11-24T06:43:14.860Z,31.30
2017-11-24T06:45:42.289Z,31.50
2017-11-24T06:48:09.757Z,31.50
2017-11-24T06:50:37.587Z,31.70
2017-11-24T06:53:05.013Z,32.00
2017-11-24T06:55:32.445Z,32.40
2017-11-24T06:57:59.873Z,32.10
2017-11-24T07:00:28.079Z,31.70
2017-11-24T07:02:55.518Z,31.60
2017-11-24T07:05:22.956Z,31.90
2017-11-24T07:07:51.145Z,31.70
2017-11-24T07:10:18.577Z,31.70
2017-11-24T07:12:46.001Z,31.50
2017-11-24T07:15:13.468Z,31.60
2017-11-24T07:17:40.893Z,31.40
2017-11-24T07:20:08.330Z,31.50
2017-11-24T07:22:35.758Z,31.50
2017-11-24T07:25:03.957Z,31.10
2017-11-24T07:27:31.392Z,31.20
2017-11-24T07:29:58.833Z,31.10
2017-11-24T07:32:27.025Z,31.20
2017-11-24T07:34:55.213Z,31.30
2017-11-24T07:37:22.704Z,31.30
2017-11-24T07:39:50.887Z,31.40
2017-11-24T07:42:18.329Z,31.40
2017-11-24T07:44:45.768Z,31.30
2017-11-24T07:47:14.145Z,31.10
2017-11-24T07:49:41.682Z,31.30
2017-11-24T07:52:09.870Z,30.80
2017-11-24T07:54:37.297Z,30.70
2017-11-24T07:57:04.730Z,30.80
2017-11-24T07:59:32.149Z,30.70
2017-11-24T08:01:59.577Z,30.70
2017-11-24T08:04:26.993Z,30.50
2017-11-24T08:06:54.446Z,30.50
2017-11-24T08:09:21.877Z,30.50
2017-11-24T08:11:49.303Z,30.20
2017-11-24T08:14:16.744Z,30.50
2017-11-24T08:16:44.936Z,30.30
2017-11-24T08:19:12.367Z,30.10
2017-11-24T08:21:40.552Z,31.80
2017-11-24T08:24:08.044Z,31.00
2017-11-24T08:26:35.506Z,33.20
2017-11-24T08:29:02.942Z,30.60
2017-11-24T08:31:30.367Z,29.70
2017-11-24T08:33:58.574Z,29.70
2017-11-24T08:36:26.018Z,29.70
2017-11-24T08:38:53.553Z,29.70
2017-11-24T08:41:21.753Z,29.30
2017-11-24T08:43:49.188Z,29.30
2017-11-24T08:46:22.186Z,29.20
2017-11-24T08:48:55.349Z,29.10
2017-11-24T08:51:22.776Z,29.00
2017-11-24T08:53:50.201Z,28.70
2017-11-24T08:56:17.625Z,28.40
2017-11-24T08:58:45.055Z,27.60
2017-11-24T09:01:12.505Z,27.70
2017-11-24T09:03:39.934Z,27.30
2017-11-24T09:06:07.373Z,27.30
2017-11-24T09:08:34.802Z,27.10
2017-11-24T09:11:02.230Z,26.60
2017-11-24T09:13:29.665Z,26.70
2017-11-24T09:15:57.099Z,26.40
2017-11-24T09:18:24.525Z,26.00
2017-11-24T09:20:52.726Z,27.10
2017-11-24T09:23:20.145Z,26.70
2017-11-24T09:25:47.578Z,26.80
2017-11-24T09:28:15.020Z,26.90
2017-11-24T09:30:42.432Z,26.90
2017-11-24T09:33:09.873Z,26.70
2017-11-24T09:35:37.305Z,25.60
2017-11-24T09:38:04.736Z,26.00
2017-11-24T09:40:32.165Z,26.30
2017-11-24T09:42:59.609Z,25.80
2017-11-24T09:45:27.206Z,26.30
2017-11-24T09:47:54.654Z,26.10
2017-11-24T09:50:22.087Z,26.00
2017-11-24T09:52:50.293Z,25.90
2017-11-24T09:55:17.725Z,25.70
2017-11-24T09:57:45.142Z,25.70
2017-11-24T10:00:12.913Z,25.30
2017-11-24T10:02:40.391Z,25.70
2017-11-24T10:05:07.789Z,25.50
2017-11-24T10:07:35.224Z,25.30
2017-11-24T10:10:02.655Z,25.00
2017-11-24T10:12:30.841Z,25.40
2017-11-24T10:14:58.281Z,25.30
2017-11-24T10:17:25.709Z,25.00
2017-11-24T10:19:53.140Z,25.10
2017-11-24T10:22:26.113Z,25.40
2017-11-24T10:24:53.547Z,25.00
2017-11-24T10:27:21.733Z,25.50
2017-11-24T10:29:49.175Z,25.40
2017-11-24T10:32:16.604Z,25.20
2017-11-24T10:34:44.029Z,25.80
2017-11-24T10:37:11.455Z,25.60
2017-11-24T10:39:38.880Z,26.00
2017-11-24T10:42:07.072Z,25.40
2017-11-24T10:44:34.498Z,25.30
2017-11-24T10:47:01.921Z,25.50
2017-11-24T10:49:29.357Z,25.00
2017-11-24T10:51:56.820Z,25.20
2017-11-24T10:54:24.220Z,25.70
2017-11-24T10:56:51.676Z,26.10
2017-11-24T10:59:19.088Z,25.60
2017-11-24T11:01:46.501Z,25.00
2017-11-24T11:04:13.939Z,25.10
2017-11-24T11:06:41.361Z,24.90
2017-11-24T11:09:08.792Z,25.20
2017-11-24T11:11:36.209Z,24.00
2017-11-24T11:14:03.653Z,24.80
2017-11-24T11:16:31.062Z,24.10
2017-11-24T11:18:58.495Z,24.20
2017-11-24T11:21:26.681Z,23.10
2017-11-24T11:23:54.117Z,22.50
2017-11-24T11:26:21.540Z,22.20
2017-11-24T11:28:48.978Z,22.20
2017-11-24T11:31:16.392Z,22.00
2017-11-24T11:33:44.605Z,22.10
2017-11-24T11:36:12.049Z,22.10
2017-11-24T11:38:40.213Z,23.20
2017-11-24T11:41:07.644Z,23.60
2017-11-24T11:43:35.070Z,23.30
2017-11-24T11:46:02.511Z,23.70
2017-11-24T11:48:29.939Z,23.60
2017-11-24T11:50:57.407Z,24.20
2017-11-24T11:53:24.821Z,24.20
2017-11-24T11:55:52.252Z,24.20
2017-11-24T11:58:19.675Z,24.60
2017-11-24T12:00:47.097Z,25.20
2017-11-24T12:03:15.298Z,25.70
2017-11-24T12:05:42.737Z,25.70
2017-11-24T12:08:10.161Z,25.90
2017-11-24T12:10:37.590Z,25.50
2017-11-24T12:13:05.022Z,25.80
2017-11-24T12:15:32.445Z,25.70
2017-11-24T12:18:00.644Z,26.40
2017-11-24T12:20:28.076Z,26.30
2017-11-24T12:22:55.505Z,26.20
2017-11-24T12:25:22.928Z,26.70
2017-11-24T12:27:50.366Z,26.70
2017-11-24T12:30:17.777Z,26.50
2017-11-24T12:32:45.217Z,27.00
2017-11-24T12:35:12.644Z,26.90
2017-11-24T12:37:40.065Z,27.10
2017-11-24T12:40:07.494Z,27.30
2017-11-24T12:42:34.916Z,26.40
2017-11-24T12:45:02.351Z,26.50
2017-11-24T12:47:29.777Z,26.70
2017-11-24T12:49:57.209Z,26.80
2017-11-24T12:52:24.637Z,26.60
2017-11-24T12:54:52.065Z,26.80
2017-11-24T12:57:19.489Z,26.70
2017-11-24T12:59:46.929Z,26.70
2017-11-24T13:02:14.372Z,27.50
2017-11-24T13:04:41.878Z,26.30
2017-11-24T13:07:10.073Z,26.40
2017-11-24T13:09:37.499Z,26.40
2017-11-24T13:12:04.931Z,26.60
2017-11-24T13:14:32.349Z,26.50
2017-11-24T13:16:59.776Z,26.40
2017-11-24T13:19:27.970Z,25.80
2017-11-24T13:21:55.401Z,25.80
2017-11-24T13:24:22.827Z,26.30
2017-11-24T13:26:51.027Z,26.40
2017-11-24T13:29:18.453Z,26.40
2017-11-24T13:31:45.913Z,26.80
2017-11-24T13:34:13.344Z,26.70
2017-11-24T13:36:40.792Z,25.80
2017-11-24T13:39:08.209Z,26.10
2017-11-24T13:41:35.630Z,26.10
2017-11-24T13:44:03.076Z,26.30
2017-11-24T13:46:30.499Z,26.50
2017-11-24T13:48:57.970Z,26.60
2017-11-24T13:51:25.374Z,26.80
2017-11-24T13:53:52.884Z,26.50
2017-11-24T13:56:20.289Z,26.30
2017-11-24T13:58:47.719Z,26.50
2017-11-24T14:01:15.158Z,26.20
2017-11-24T14:03:42.592Z,26.20
2017-11-24T14:06:10.010Z,26.30
2017-11-24T14:08:37.433Z,26.40
2017-11-24T14:11:04.853Z,26.10
2017-11-24T14:13:32.289Z,26.00
2017-11-24T14:15:59.728Z,26.40
2017-11-24T14:18:27.141Z,26.40
2017-11-24T14:20:54.577Z,26.50
2017-11-24T14:23:22.017Z,26.60
2017-11-24T14:25:50.200Z,26.60
2017-11-24T14:28:17.621Z,26.50
2017-11-24T14:30:45.046Z,26.40
2017-11-24T14:33:12.473Z,26.70
2017-11-24T14:35:39.904Z,26.70
2017-11-24T14:38:08.099Z,27.00
2017-11-24T14:40:35.529Z,27.00
2017-11-24T14:43:03.713Z,27.10
2017-11-24T14:45:31.130Z,27.10
2017-11-24T14:47:58.577Z,27.30
2017-11-24T14:50:26.001Z,27.60
2017-11-24T14:52:53.420Z,28.00
2017-11-24T14:55:20.846Z,28.40
2017-11-24T14:57:48.278Z,28.60
2017-11-24T15:00:15.696Z,28.90
2017-11-24T15:02:43.911Z,29.40
2017-11-24T15:05:11.345Z,29.30
2017-11-24T15:07:38.784Z,29.40
2017-11-24T15:10:06.961Z,29.70
2017-11-24T15:12:34.385Z,29.70
2017-11-24T15:15:01.825Z,29.80
2017-11-24T15:17:29.265Z,30.10
2017-11-24T15:19:56.677Z,30.10
2017-11-24T15:22:24.105Z,30.20
2017-11-24T15:24:51.541Z,30.00
2017-11-24T15:27:18.969Z,30.30
2017-11-24T15:29:46.405Z,30.40
2017-11-24T15:32:14.598Z,30.60
2017-11-24T15:34:42.029Z,30.50
2017-11-24T15:37:09.445Z,30.00
2017-11-24T15:39:36.906Z,29.60
2017-11-24T15:42:04.320Z,29.90
2017-11-24T15:44:31.741Z,30.10
2017-11-24T15:46:59.178Z,30.50
2017-11-24T15:49:26.606Z,31.40
2017-11-24T15:51:54.036Z,30.40
2017-11-24T15:54:21.457Z,30.00
2017-11-24T15:56:48.897Z,30.00
2017-11-24T15:59:16.335Z,30.10
2017-11-24T16:01:43.758Z,30.40
2017-11-24T16:04:11.179Z,30.40
2017-11-24T16:06:38.633Z,30.00
2017-11-24T16:09:06.069Z,30.00
2017-11-24T16:11:33.481Z,30.30
2017-11-24T16:14:00.920Z,30.30
2017-11-24T16:16:28.526Z,30.50
2017-11-24T16:18:55.950Z,30.00
2017-11-24T16:21:23.372Z,30.20
2017-11-24T16:23:50.808Z,30.60
2017-11-24T16:26:18.240Z,30.60
2017-11-24T16:28:45.685Z,30.50
2017-11-24T16:31:13.117Z,30.60
2017-11-24T16:33:40.529Z,30.50
2017-11-24T16:36:07.969Z,30.80
2017-11-24T16:38:35.385Z,31.50
2017-11-24T16:41:02.875Z,32.60
2017-11-24T16:43:30.315Z,34.20
2017-11-24T16:45:57.730Z,35.00
2017-11-24T16:48:25.154Z,36.10
2017-11-24T16:50:52.595Z,36.80
2017-11-24T16:53:20.023Z,37.50
2017-11-24T16:58:51.220Z,38.30
2017-11-24T17:01:18.649Z,38.80
2017-11-24T17:03:46.083Z,39.30
2017-11-24T17:06:13.517Z,39.20
2017-11-24T17:08:40.947Z,39.20
2017-11-24T17:11:08.386Z,39.50
2017-11-24T17:13:35.805Z,39.70
2017-11-24T17:16:03.234Z,39.90
2017-11-24T17:18:30.674Z,40.00
2017-11-24T17:20:58.104Z,39.80
2017-11-24T17:23:26.317Z,40.00
2017-11-24T17:25:53.730Z,40.00
2017-11-24T17:28:21.177Z,40.10
2017-11-24T17:30:48.606Z,40.30
2017-11-24T17:33:16.043Z,40.40
2017-11-24T17:35:43.461Z,40.50
2017-11-24T17:38:11.663Z,40.50
2017-11-24T17:40:39.096Z,40.50
2017-11-24T17:43:06.523Z,40.80
2017-11-24T17:45:33.945Z,40.80
2017-11-24T17:48:01.385Z,40.60
2017-11-24T17:50:28.812Z,40.70
2017-11-24T17:52:56.998Z,40.80
2017-11-24T17:55:24.446Z,40.70
2017-11-24T17:57:51.876Z,40.80
2017-11-24T18:00:19.306Z,40.50
2017-11-24T18:02:46.730Z,40.30
2017-11-24T18:05:14.163Z,40.20
2017-11-24T18:07:42.357Z,40.00
2017-11-24T18:10:09.793Z,40.00
2017-11-24T18:12:37.224Z,40.10
2017-11-24T18:15:04.954Z,40.30
2017-11-24T18:17:32.372Z,40.50
2017-11-24T18:20:00.586Z,41.40
2017-11-24T18:22:28.005Z,40.70
2017-11-24T18:24:55.470Z,41.10
2017-11-24T18:27:22.889Z,41.90
2017-11-24T18:29:50.318Z,41.70
2017-11-24T18:32:17.748Z,41.80
2017-11-24T18:34:45.172Z,41.90
2017-11-24T18:37:13.380Z,41.90
2017-11-24T18:39:40.814Z,41.80
2017-11-24T18:42:08.246Z,41.40
2017-11-24T18:44:36.065Z,41.50
2017-11-24T18:47:03.516Z,41.70
2017-11-24T18:49:30.950Z,41.40
2017-11-24T18:51:59.136Z,41.40
2017-11-24T18:54:26.573Z,41.40
2017-11-24T18:56:53.985Z,41.50
2017-11-24T18:59:22.197Z,40.50
2017-11-24T19:01:50.398Z,41.40
2017-11-24T19:04:17.831Z,41.40
2017-11-24T19:06:45.253Z,42.60
2017-11-24T19:09:12.696Z,43.70
2017-11-24T19:14:32.812Z,43.90
2017-11-24T19:17:00.245Z,44.40
2017-11-24T19:19:27.683Z,44.50
2017-11-24T19:21:55.109Z,44.60
2017-11-24T19:24:22.548Z,44.30
2017-11-24T19:26:50.080Z,44.80
2017-11-24T19:29:18.233Z,45.00
2017-11-24T19:31:45.665Z,45.00
2017-11-24T19:34:13.079Z,45.00
2017-11-24T19:36:40.517Z,45.20
2017-11-24T19:39:07.961Z,44.60
2017-11-24T19:41:35.448Z,43.60
2017-11-24T19:44:02.909Z,45.00
2017-11-24T19:46:30.361Z,46.00
2017-11-24T19:48:57.785Z,44.30
2017-11-24T19:51:25.196Z,44.20
2017-11-24T19:53:52.706Z,45.20
2017-11-24T19:56:20.131Z,45.60
2017-11-24T19:58:47.553Z,45.80
2017-11-24T20:01:16.598Z,46.20
2017-11-24T20:03:44.022Z,46.10
2017-11-24T20:06:11.450Z,46.30
2017-11-24T20:08:38.895Z,46.50
2017-11-24T20:11:06.331Z,47.10
2017-11-24T20:13:33.752Z,47.10
2017-11-24T20:16:01.177Z,47.60
2017-11-24T20:18:28.613Z,47.50
2017-11-24T20:20:56.043Z,47.50
2017-11-24T20:23:23.480Z,47.50
2017-11-24T20:25:50.906Z,47.50
2017-11-24T20:28:19.105Z,48.10
2017-11-24T20:30:46.526Z,48.10
2017-11-24T20:33:13.956Z,48.00
2017-11-24T20:35:41.385Z,48.20
2017-11-24T20:38:08.805Z,48.80
2017-11-24T20:40:36.232Z,49.10
2017-11-24T20:43:03.659Z,48.80
2017-11-24T20:45:31.076Z,48.90
2017-11-24T20:47:59.278Z,49.50
2017-11-24T20:50:26.700Z,49.40
2017-11-24T20:52:54.129Z,49.40
2017-11-24T20:55:21.557Z,50.30
2017-11-24T20:57:48.985Z,50.10
2017-11-24T21:00:16.430Z,50.30
2017-11-24T21:02:44.614Z,50.50
2017-11-24T21:05:12.048Z,50.50
2017-11-24T21:07:39.473Z,51.50
2017-11-24T21:10:06.911Z,51.10
2017-11-24T21:12:34.328Z,51.10
2017-11-24T21:15:02.534Z,51.40
2017-11-24T21:17:29.966Z,51.40
2017-11-24T21:19:58.137Z,51.40
2017-11-24T21:22:25.573Z,51.40
2017-11-24T21:24:52.986Z,51.00
2017-11-24T21:27:20.414Z,51.20
2017-11-24T21:29:47.841Z,51.40
2017-11-24T21:32:15.273Z,51.10
2017-11-24T21:34:42.692Z,51.40
2017-11-24T21:37:10.118Z,51.40
2017-11-24T21:39:38.320Z,51.40
2017-11-24T21:42:05.750Z,51.30
2017-11-24T21:44:33.937Z,51.50
2017-11-24T21:47:01.365Z,51.40
2017-11-24T21:49:29.557Z,51.50
2017-11-24T21:51:57.757Z,51.30
2017-11-24T21:54:25.169Z,51.30
2017-11-24T21:56:52.615Z,51.30
2017-11-24T21:59:20.037Z,51.30
2017-11-24T22:01:47.467Z,51.30
2017-11-24T22:04:14.893Z,51.30
2017-11-24T22:06:43.085Z,51.30
2017-11-24T22:09:10.521Z,51.30
2017-11-24T22:11:37.954Z,51.30
2017-11-24T22:14:05.381Z,51.00
2017-11-24T22:16:32.804Z,51.30
2017-11-24T22:19:00.241Z,51.30
2017-11-24T22:21:28.437Z,51.00
2017-11-24T22:23:55.869Z,50.80
2017-11-24T22:26:23.292Z,50.20
2017-11-24T22:28:50.730Z,50.10
2017-11-24T22:31:18.153Z,49.60
2017-11-24T22:33:46.345Z,49.40
2017-11-24T22:36:13.761Z,49.40
2017-11-24T22:38:41.193Z,49.60
2017-11-24T22:41:08.617Z,49.80
2017-11-24T22:43:36.066Z,50.00
2017-11-24T22:46:03.497Z,50.40
2017-11-24T22:48:31.668Z,50.60
2017-11-24T22:50:59.097Z,50.50
2017-11-24T22:53:26.516Z,50.90
2017-11-24T22:55:53.953Z,51.00
2017-11-24T22:58:22.129Z,51.60
2017-11-24T23:00:49.561Z,51.50
2017-11-24T23:03:17.746Z,52.60
2017-11-24T23:05:45.182Z,52.40
2017-11-24T23:08:12.597Z,52.50
2017-11-24T23:10:40.036Z,52.60
2017-11-24T23:13:07.481Z,52.80
2017-11-24T23:15:34.917Z,53.30
2017-11-24T23:18:02.344Z,53.60
2017-11-24T23:20:29.769Z,54.00
2017-11-24T23:22:57.201Z,54.50
2017-11-24T23:25:24.618Z,54.80
2017-11-24T23:27:52.049Z,55.40
2017-11-24T23:30:19.479Z,55.50
2017-11-24T23:32:46.899Z,55.50
2017-11-24T23:35:14.325Z,55.40
2017-11-24T23:37:41.759Z,55.40
2017-11-24T23:40:09.181Z,55.50
2017-11-24T23:42:36.613Z,55.70
2017-11-24T23:45:04.031Z,56.00
2017-11-24T23:47:31.460Z,56.00
2017-11-24T23:49:58.883Z,55.80
2017-11-24T23:52:26.448Z,56.00
2017-11-24T23:54:53.873Z,56.50
2017-11-24T23:57:21.296Z,55.70
2017-11-24T23:59:48.762Z,56.00
